Time;durP1;ratioP1;P1;durP2;ratioP2;P2;SDS_P1;SDS_P2;PMS_P1;PMS_P2;Temp;Humidity;BMP_temperature;BMP_pressure;BME280_temperature;BME280_humidity;BME280_pressure;Samples;Min_cycle;Max_cycle;Signal;HPM_P1;HPM_P2
2023/07/10 00:00:04;;;;;;;;;;;29.20;92.70;29.00;99979.00;;;;335313;29;83411;-90
2023/07/10 00:00:17;;;;;;;;;;;29.20;92.60;29.00;99982.00;;;;334733;29;91562;-90
2023/07/10 00:00:29;;;;;;;;;;;29.20;92.50;28.90;99979.00;;;;337854;28;83449;-91
2023/07/10 00:00:41;;;;;;;;;;;29.20;92.60;29.00;99981.00;;;;334781;29;92655;-90
2023/07/10 00:00:53;;;;;;;;;;;29.10;92.50;29.00;99986.00;;;;335245;29;83208;-90
2023/07/10 00:01:05;;;;;;;;;;;29.10;92.50;29.00;99980.00;;;;334901;29;91001;-90
2023/07/10 00:01:17;;;;;;;;;;;29.10;92.50;29.00;99977.00;;;;333974;29;83201;-90
2023/07/10 00:01:29;;;;;;;;;;;29.10;92.50;29.00;99973.00;;;;336219;28;91480;-90
2023/07/10 00:01:41;;;;;;;;;;;29.10;92.50;29.00;99984.00;;;;335320;29;83350;-91
2023/07/10 00:01:53;;;;;;;;;;;29.10;92.60;29.10;99979.00;;;;337534;28;91544;-89
2023/07/10 00:02:12;;;;;;;;;;;29.10;92.50;29.10;99984.00;;;;336644;28;83400;-90
2023/07/10 00:02:23;;;;;;;;;;;29.10;92.60;28.90;99980.00;;;;336232;28;91549;-91
2023/07/10 00:02:35;;;;;;;;;;;29.10;92.80;29.00;99986.00;;;;336631;28;83337;-90
2023/07/10 00:02:48;;;;;;;;;;;29.10;92.70;29.10;99983.00;;;;337446;28;92837;-91
2023/07/10 00:03:00;;;;;;;;;;;29.10;92.60;29.10;99983.00;;;;336525;28;83513;-91
2023/07/10 00:03:12;;;;;;;;;;;29.10;92.70;29.10;99979.00;;;;336155;28;90587;-90
2023/07/10 00:03:24;;;;;;;;;;;29.10;92.70;29.10;99986.00;;;;336594;28;83337;-90
2023/07/10 00:03:36;;;;;;;;;;;29.10;92.70;29.10;99979.00;;;;334815;29;90735;-90
2023/07/10 00:03:48;;;;;;;;;;;29.10;92.70;29.10;99980.00;;;;336571;28;83541;-90
2023/07/10 00:04:00;;;;;;;;;;;29.10;92.70;29.10;99982.00;;;;336139;28;91925;-91
2023/07/10 00:04:17;;;;;;;;;;;29.10;92.70;29.00;99983.00;;;;337893;28;82538;-91
2023/07/10 00:04:29;;;;;;;;;;;29.10;92.70;29.00;99977.00;;;;334875;29;91884;-91
2023/07/10 00:04:41;;;;;;;;;;;29.10;92.70;29.00;99975.00;;;;335351;29;83396;-90
2023/07/10 00:04:52;;;;;;;;;;;29.10;92.60;29.10;99975.00;;;;337381;28;93011;-91
2023/07/10 00:05:12;;;;;;;;;;;29.10;92.60;29.10;99981.00;;;;337912;28;83511;-91
2023/07/10 00:05:24;;;;;;;;;;;29.10;92.60;29.00;99983.00;;;;333608;29;92246;-90
2023/07/10 00:05:36;;;;;;;;;;;29.10;92.60;29.00;99980.00;;;;333890;29;82558;-92
2023/07/10 00:05:47;;;;;;;;;;;29.10;92.70;28.90;99977.00;;;;337592;28;91711;-91
2023/07/10 00:05:59;;;;;;;;;;;29.10;92.70;29.00;99988.00;;;;337859;28;83456;-91
2023/07/10 00:06:12;;;;;;;;;;;29.10;92.60;29.00;99977.00;;;;333630;29;90624;-92
2023/07/10 00:06:24;;;;;;;;;;;29.10;92.50;29.00;99977.00;;;;336641;28;82498;-91
2023/07/10 00:06:36;;;;;;;;;;;29.10;92.60;29.00;99974.00;;;;336181;28;92085;-90
2023/07/10 00:06:48;;;;;;;;;;;29.10;92.60;28.90;99977.00;;;;335417;29;83259;-91
2023/07/10 00:06:59;;;;;;;;;;;29.10;92.60;29.00;99982.00;;;;337329;28;92197;-91
2023/07/10 00:07:11;;;;;;;;;;;29.10;92.60;29.00;99971.00;;;;335289;29;83414;-91
2023/07/10 00:07:23;;;;;;;;;;;29.10;92.70;29.00;99975.00;;;;334932;29;90161;-90
2023/07/10 00:07:35;;;;;;;;;;;29.10;92.70;29.00;99975.00;;;;333980;29;83534;-91
2023/07/10 00:07:47;;;;;;;;;;;29.00;92.60;29.00;99979.00;;;;333623;29;89385;-91
2023/07/10 00:07:59;;;;;;;;;;;29.00;92.70;29.00;99975.00;;;;335347;29;83479;-91
2023/07/10 00:08:11;;;;;;;;;;;29.00;92.60;29.00;99972.00;;;;333602;29;89883;-91
2023/07/10 00:08:23;;;;;;;;;;;29.00;92.60;29.00;99981.00;;;;336181;28;83518;-90
2023/07/10 00:08:34;;;;;;;;;;;29.00;92.60;29.00;99977.00;;;;336103;28;91555;-91
2023/07/10 00:08:46;;;;;;;;;;;29.00;92.70;29.00;99981.00;;;;336579;28;83387;-91
2023/07/10 00:08:58;;;;;;;;;;;29.00;92.80;29.00;99979.00;;;;336040;28;92113;-91
2023/07/10 00:09:10;;;;;;;;;;;29.00;92.80;29.00;99979.00;;;;335361;29;83378;-90
2023/07/10 00:09:22;;;;;;;;;;;29.00;92.70;29.00;99968.00;;;;336194;28;90709;-90
2023/07/10 00:09:33;;;;;;;;;;;29.10;92.70;29.00;99969.00;;;;333969;29;82496;-90
2023/07/10 00:09:45;;;;;;;;;;;29.00;92.70;29.00;99973.00;;;;332335;29;91507;-91
2023/07/10 00:09:57;;;;;;;;;;;29.00;92.80;29.00;99973.00;;;;335287;29;83330;-90
2023/07/10 00:10:13;;;;;;;;;;;29.00;92.80;29.10;99968.00;;;;336216;28;90097;-90
2023/07/10 00:10:25;;;;;;;;;;;29.00;92.80;29.00;99979.00;;;;335270;29;83500;-92
2023/07/10 00:10:36;;;;;;;;;;;29.00;92.80;29.00;99970.00;;;;336173;28;90509;-90
2023/07/10 00:10:48;;;;;;;;;;;29.00;92.80;29.10;99972.00;;;;335366;29;83395;-91
2023/07/10 00:11:00;;;;;;;;;;;29.00;92.80;29.10;99973.00;;;;336029;28;92581;-91
2023/07/10 00:11:30;;;;;;;;;;;29.10;92.80;29.10;99970.00;;;;337942;28;83394;-91
2023/07/10 00:11:42;;;;;;;;;;;29.00;92.80;29.00;99974.00;;;;334814;29;91630;-92
2023/07/10 00:11:54;;;;;;;;;;;29.10;92.80;29.00;99974.00;;;;335250;29;82475;-92
2023/07/10 00:12:07;;;;;;;;;;;29.10;92.70;29.00;99970.00;;;;337598;28;88022;-91
2023/07/10 00:12:20;;;;;;;;;;;29.10;92.70;29.00;99976.00;;;;336554;28;83522;-91
2023/07/10 00:12:33;;;;;;;;;;;29.10;92.60;29.00;99975.00;;;;336240;28;91673;-91
2023/07/10 00:12:45;;;;;;;;;;;29.10;92.60;29.10;99971.00;;;;337972;28;83422;-91
2023/07/10 00:12:56;;;;;;;;;;;29.10;92.60;28.90;99973.00;;;;333586;29;90542;-92
2023/07/10 00:13:11;;;;;;;;;;;29.10;92.60;29.00;99973.00;;;;336623;28;83493;-90
2023/07/10 00:13:23;;;;;;;;;;;29.10;92.60;28.90;99970.00;;;;337473;28;91189;-91
2023/07/10 00:13:35;;;;;;;;;;;29.10;92.60;28.90;99975.00;;;;336460;28;82581;-91
2023/07/10 00:13:47;;;;;;;;;;;29.10;92.60;28.90;99966.00;;;;334924;28;89097;-91
2023/07/10 00:13:59;;;;;;;;;;;29.10;92.60;28.80;99975.00;;;;335316;29;83287;-91
2023/07/10 00:14:17;;;;;;;;;;;29.10;92.70;29.00;99969.00;;;;334835;29;91619;-90
2023/07/10 00:14:33;;;;;;;;;;;29.10;92.60;28.90;99976.00;;;;337991;28;83559;-91
2023/07/10 00:14:45;;;;;;;;;;;29.10;92.70;28.80;99976.00;;;;337588;28;89506;-91
2023/07/10 00:14:57;;;;;;;;;;;29.00;92.70;28.90;99975.00;;;;335438;29;83462;-91
2023/07/10 00:15:16;;;;;;;;;;;29.00;92.70;28.90;99982.00;;;;335066;29;92022;-91
2023/07/10 00:15:27;;;;;;;;;;;29.00;92.70;29.00;99982.00;;;;336919;28;83352;-91
2023/07/10 00:15:39;;;;;;;;;;;29.00;92.70;29.00;99977.00;;;;334911;29;91407;-89
2023/07/10 00:15:52;;;;;;;;;;;29.00;92.60;28.90;99975.00;;;;334225;29;82538;-90
2023/07/10 00:16:04;;;;;;;;;;;29.00;92.70;28.80;99980.00;;;;337850;28;88138;-90
2023/07/10 00:16:19;;;;;;;;;;;29.00;92.70;28.80;99976.00;;;;338143;28;83375;-91
2023/07/10 00:16:30;;;;;;;;;;;29.00;92.80;28.80;99979.00;;;;335248;29;90008;-91
2023/07/10 00:16:42;;;;;;;;;;;29.00;92.80;28.80;99972.00;;;;335558;29;83408;-92
2023/07/10 00:16:54;;;;;;;;;;;29.00;92.80;28.80;99973.00;;;;335007;29;92174;-90
2023/07/10 00:17:08;;;;;;;;;;;29.00;92.80;28.80;99973.00;;;;337953;28;83525;-90
2023/07/10 00:17:19;;;;;;;;;;;29.00;92.80;28.90;99981.00;;;;340481;28;90181;-91
2023/07/10 00:17:31;;;;;;;;;;;29.00;92.80;28.80;99975.00;;;;338123;28;82495;-90
2023/07/10 00:17:45;;;;;;;;;;;29.00;92.80;28.90;99973.00;;;;337602;28;92511;-90
2023/07/10 00:17:57;;;;;;;;;;;29.00;93.00;28.80;99979.00;;;;339473;28;82510;-91
2023/07/10 00:18:20;;;;;;;;;;;29.00;92.80;28.80;99976.00;;;;336379;28;92400;-89
2023/07/10 00:18:32;;;;;;;;;;;29.00;92.80;28.80;99980.00;;;;338176;28;82528;-91
2023/07/10 00:18:44;;;;;;;;;;;29.00;92.90;28.90;99976.00;;;;336454;28;88833;-91
2023/07/10 00:18:55;;;;;;;;;;;29.00;92.90;28.90;99971.00;;;;339453;28;83369;-90
2023/07/10 00:19:11;;;;;;;;;;;29.00;92.80;28.80;99976.00;;;;339098;28;90340;-90
2023/07/10 00:19:23;;;;;;;;;;;29.00;92.90;28.80;99976.00;;;;336780;28;83567;-90
2023/07/10 00:19:35;;;;;;;;;;;28.90;92.90;28.80;99973.00;;;;336434;28;90171;-92
2023/07/10 00:19:47;;;;;;;;;;;28.90;92.90;28.80;99977.00;;;;339488;28;83451;-91
2023/07/10 00:20:00;;;;;;;;;;;28.90;92.90;28.80;99977.00;;;;338854;28;91346;-90
2023/07/10 00:20:17;;;;;;;;;;;28.90;92.90;28.70;99975.00;;;;336765;28;83445;-91
2023/07/10 00:20:29;;;;;;;;;;;28.90;93.00;28.70;99976.00;;;;333802;29;90383;-90
2023/07/10 00:20:41;;;;;;;;;;;28.90;92.90;28.70;99982.00;;;;339428;28;83446;-90
2023/07/10 00:20:53;;;;;;;;;;;28.90;92.90;28.70;99975.00;;;;337697;28;91094;-91
2023/07/10 00:21:05;;;;;;;;;;;28.90;92.80;28.80;99976.00;;;;335530;29;82504;-90
2023/07/10 00:21:19;;;;;;;;;;;28.90;92.90;28.80;99974.00;;;;335145;29;90234;-91
2023/07/10 00:21:31;;;;;;;;;;;28.90;92.90;28.80;99986.00;;;;335477;29;83433;-90
2023/07/10 00:21:45;;;;;;;;;;;28.90;92.90;28.70;99979.00;;;;337599;28;91825;-91
2023/07/10 00:21:57;;;;;;;;;;;28.90;93.00;28.70;99974.00;;;;339492;28;83047;-89
2023/07/10 00:22:09;;;;;;;;;;;28.90;92.90;28.70;99977.00;;;;336324;28;93046;-91
2023/07/10 00:22:21;;;;;;;;;;;28.90;92.90;28.70;99973.00;;;;336829;28;83130;-90
2023/07/10 00:22:32;;;;;;;;;;;28.90;92.90;28.80;99980.00;;;;335071;29;91812;-90
2023/07/10 00:22:45;;;;;;;;;;;28.90;92.90;28.60;99979.00;;;;335479;29;83374;-90
2023/07/10 00:22:56;;;;;;;;;;;28.90;93.00;28.50;99976.00;;;;336435;28;90269;-90
2023/07/10 00:23:08;;;;;;;;;;;28.80;93.30;28.60;99982.00;;;;335597;29;83382;-90
2023/07/10 00:23:20;;;;;;;;;;;28.80;92.90;28.70;99981.00;;;;337751;28;90501;-89
2023/07/10 00:23:32;;;;;;;;;;;28.80;93.00;28.60;99974.00;;;;336716;28;83408;-91
2023/07/10 00:23:44;;;;;;;;;;;28.80;93.00;28.60;99973.00;;;;336399;28;90939;-90
2023/07/10 00:23:56;;;;;;;;;;;28.80;93.00;28.60;99986.00;;;;335556;29;83399;-91
2023/07/10 00:24:08;;;;;;;;;;;28.80;93.00;28.60;99986.00;;;;337672;28;93058;-91
2023/07/10 00:24:20;;;;;;;;;;;28.80;93.00;28.60;99980.00;;;;338089;28;82612;-90
2023/07/10 00:24:32;;;;;;;;;;;28.80;93.00;28.60;99983.00;;;;337751;28;90789;-90
2023/07/10 00:24:43;;;;;;;;;;;28.70;93.30;28.60;99983.00;;;;339447;28;83468;-91
2023/07/10 00:24:55;;;;;;;;;;;28.70;92.90;28.60;99982.00;;;;337355;28;91380;-90
2023/07/10 00:25:07;;;;;;;;;;;28.70;93.00;28.70;99980.00;;;;336847;28;83407;-90
2023/07/10 00:25:19;;;;;;;;;;;28.70;92.90;28.60;99982.00;;;;337713;28;92012;-90
2023/07/10 00:25:31;;;;;;;;;;;28.70;92.90;28.70;99981.00;;;;336782;28;82522;-90
2023/07/10 00:25:43;;;;;;;;;;;28.70;93.10;28.60;99981.00;;;;336334;28;91493;-90
2023/07/10 00:25:55;;;;;;;;;;;28.70;93.10;28.50;99983.00;;;;335565;29;83360;-92
2023/07/10 00:26:27;;;;;;;;;;;28.70;93.20;28.60;99983.00;;;;335051;29;92910;-90
2023/07/10 00:26:40;;;;;;;;;;;28.70;93.10;28.70;99985.00;;;;336838;28;82522;-90
2023/07/10 00:26:51;;;;;;;;;;;28.70;93.20;28.70;99985.00;;;;336348;28;91896;-90
2023/07/10 00:27:10;;;;;;;;;;;28.70;93.20;28.70;99982.00;;;;336779;28;82540;-90
2023/07/10 00:27:22;;;;;;;;;;;28.70;93.30;28.60;99986.00;;;;337841;28;88199;-90
2023/07/10 00:27:33;;;;;;;;;;;28.70;93.30;28.60;99980.00;;;;336658;28;83499;-90
2023/07/10 00:27:46;;;;;;;;;;;28.70;93.30;28.70;99987.00;;;;337687;28;92085;-91
2023/07/10 00:27:58;;;;;;;;;;;28.70;93.30;28.60;99983.00;;;;339579;28;83367;-91
2023/07/10 00:28:20;;;;;;;;;;;28.70;93.30;28.60;99986.00;;;;337743;28;90517;-90
2023/07/10 00:28:32;;;;;;;;;;;28.70;93.30;28.60;99989.00;;;;338114;28;83449;-90
2023/07/10 00:28:43;;;;;;;;;;;28.70;93.30;28.60;99984.00;;;;337717;28;90085;-91
2023/07/10 00:28:56;;;;;;;;;;;28.70;93.20;28.60;99983.00;;;;338114;28;83482;-91
2023/07/10 00:29:21;;;;;;;;;;;28.70;93.30;28.50;99988.00;;;;336516;28;90669;-90
2023/07/10 00:29:33;;;;;;;;;;;28.70;93.30;28.60;99989.00;;;;336752;28;83431;-91
2023/07/10 00:29:45;;;;;;;;;;;28.70;93.30;28.60;99985.00;;;;339046;28;91890;-91
2023/07/10 00:29:57;;;;;;;;;;;28.70;93.30;28.60;99985.00;;;;336794;28;83498;-91
2023/07/10 00:30:24;;;;;;;;;;;28.70;93.30;28.60;99986.00;;;;332607;29;90204;-90
2023/07/10 00:30:36;;;;;;;;;;;28.70;93.40;28.70;99991.00;;;;335594;29;82541;-90
2023/07/10 00:30:48;;;;;;;;;;;28.70;93.30;28.70;99981.00;;;;337757;28;90855;-91
2023/07/10 00:31:00;;;;;;;;;;;28.70;93.30;28.70;99989.00;;;;336754;28;83399;-91
2023/07/10 00:31:13;;;;;;;;;;;28.70;93.30;28.70;99996.00;;;;333793;29;92777;-91
2023/07/10 00:31:24;;;;;;;;;;;28.70;93.30;28.70;99989.00;;;;336803;28;83539;-90
2023/07/10 00:31:39;;;;;;;;;;;28.70;93.20;28.60;99991.00;;;;336319;28;91713;-91
2023/07/10 00:31:50;;;;;;;;;;;28.70;93.40;28.60;99983.00;;;;336906;28;82476;-90
2023/07/10 00:32:09;;;;;;;;;;;28.70;93.30;28.60;99987.00;;;;335129;29;91294;-91
2023/07/10 00:32:21;;;;;;;;;;;28.70;93.30;28.60;99986.00;;;;338029;28;83552;-91
2023/07/10 00:32:33;;;;;;;;;;;28.70;93.30;28.60;99985.00;;;;337659;28;91703;-90
2023/07/10 00:32:45;;;;;;;;;;;28.70;93.30;28.60;99986.00;;;;338220;28;83460;-90
2023/07/10 00:32:57;;;;;;;;;;;28.70;93.30;28.60;99986.00;;;;336329;28;90207;-90
2023/07/10 00:33:10;;;;;;;;;;;28.70;93.40;28.60;99987.00;;;;335612;29;83439;-90
2023/07/10 00:33:22;;;;;;;;;;;28.70;93.40;28.60;99982.00;;;;337701;28;92220;-91
2023/07/10 00:33:34;;;;;;;;;;;28.70;93.30;28.70;99984.00;;;;339480;28;82456;-91
2023/07/10 00:33:47;;;;;;;;;;;28.70;93.30;28.70;99986.00;;;;336461;28;91544;-91
2023/07/10 00:33:59;;;;;;;;;;;28.70;93.30;28.60;99991.00;;;;334240;29;82574;-91
2023/07/10 00:34:13;;;;;;;;;;;28.70;93.30;28.60;99990.00;;;;337786;28;90436;-90
2023/07/10 00:34:25;;;;;;;;;;;28.70;93.30;28.60;99986.00;;;;338195;28;82582;-91
2023/07/10 00:34:37;;;;;;;;;;;28.70;93.30;28.60;99983.00;;;;337760;28;90486;-91
2023/07/10 00:34:49;;;;;;;;;;;28.70;93.20;28.70;99982.00;;;;339582;28;83373;-91
2023/07/10 00:35:01;;;;;;;;;;;28.70;93.30;28.70;99985.00;;;;335174;29;91177;-92
2023/07/10 00:35:16;;;;;;;;;;;28.70;93.30;28.70;99989.00;;;;336932;28;82307;-90
2023/07/10 00:35:28;;;;;;;;;;;28.70;93.30;28.70;99986.00;;;;336466;28;91640;-91
2023/07/10 00:35:40;;;;;;;;;;;28.70;93.30;28.60;99984.00;;;;337057;28;83490;-91
2023/07/10 00:35:52;;;;;;;;;;;28.70;93.30;28.60;99981.00;;;;339317;28;90220;-91
2023/07/10 00:36:28;;;;;;;;;;;28.70;93.40;28.70;99980.00;;;;336855;28;83403;-91
2023/07/10 00:36:41;;;;;;;;;;;28.70;93.40;28.70;99984.00;;;;330160;29;91004;-90
2023/07/10 00:36:53;;;;;;;;;;;28.70;93.40;28.60;99983.00;;;;332361;29;83560;-91
2023/07/10 00:37:05;;;;;;;;;;;28.70;93.40;28.60;99985.00;;;;337810;28;91922;-90
2023/07/10 00:37:17;;;;;;;;;;;28.70;93.30;28.70;99989.00;;;;337002;28;83855;-91
2023/07/10 00:37:28;;;;;;;;;;;28.70;93.30;28.60;99983.00;;;;335130;29;91823;-90
2023/07/10 00:37:40;;;;;;;;;;;28.70;93.30;28.60;99979.00;;;;338197;28;83266;-91
2023/07/10 00:38:01;;;;;;;;;;;28.70;93.30;28.60;99989.00;;;;337750;28;91559;-91
2023/07/10 00:38:24;;;;;;;;;;;28.70;93.40;28.60;99985.00;;;;335414;29;83468;-91
2023/07/10 00:38:36;;;;;;;;;;;28.70;93.40;28.50;99982.00;;;;335301;29;87572;-91
2023/07/10 00:38:48;;;;;;;;;;;28.60;93.40;28.60;99987.00;;;;336885;28;83386;-92
2023/07/10 00:39:24;;;;;;;;;;;28.60;93.40;28.60;99991.00;;;;337522;28;90346;-90
2023/07/10 00:39:35;;;;;;;;;;;28.60;93.40;28.60;99992.00;;;;339461;28;82514;-91
2023/07/10 00:39:47;;;;;;;;;;;28.60;93.40;28.60;99982.00;;;;337992;28;91524;-91
2023/07/10 00:39:59;;;;;;;;;;;28.60;93.40;28.60;99981.00;;;;337169;28;82495;-90
2023/07/10 00:40:20;;;;;;;;;;;28.60;93.40;28.60;99990.00;;;;335477;29;90144;-90
2023/07/10 00:40:33;;;;;;;;;;;28.60;93.40;28.60;99990.00;;;;336005;28;82570;-90
2023/07/10 00:40:46;;;;;;;;;;;28.60;93.40;28.60;99989.00;;;;335406;29;92488;-91
2023/07/10 00:40:58;;;;;;;;;;;28.60;93.40;28.60;99987.00;;;;335850;29;82579;-91
2023/07/10 00:41:10;;;;;;;;;;;28.60;93.50;28.50;99985.00;;;;336590;28;91871;-91
2023/07/10 00:41:23;;;;;;;;;;;28.60;93.50;28.50;99985.00;;;;338325;28;82491;-89
2023/07/10 00:41:36;;;;;;;;;;;28.60;93.40;28.50;99985.00;;;;339276;28;90721;-91
2023/07/10 00:41:51;;;;;;;;;;;28.60;93.40;28.60;99992.00;;;;337221;28;82473;-91
2023/07/10 00:42:11;;;;;;;;;;;28.70;93.40;28.60;99988.00;;;;336772;28;91134;-91
2023/07/10 00:42:23;;;;;;;;;;;28.70;93.40;28.60;99986.00;;;;337038;28;83556;-91
2023/07/10 00:42:35;;;;;;;;;;;28.70;93.40;28.60;99991.00;;;;336725;28;90427;-91
2023/07/10 00:42:48;;;;;;;;;;;28.70;93.40;28.60;99989.00;;;;337087;28;82432;-90
2023/07/10 00:43:18;;;;;;;;;;;28.70;93.40;28.60;99989.00;;;;335092;29;90170;-91
2023/07/10 00:43:35;;;;;;;;;;;28.70;93.50;28.50;99991.00;;;;336738;28;82486;-90
2023/07/10 00:43:51;;;;;;;;;;;28.70;93.50;28.50;99989.00;;;;337778;28;90482;-91
2023/07/10 00:44:03;;;;;;;;;;;28.60;93.60;28.50;99990.00;;;;338064;28;83329;-91
2023/07/10 00:44:15;;;;;;;;;;;28.60;93.60;28.50;99983.00;;;;337630;28;91702;-90
2023/07/10 00:44:35;;;;;;;;;;;28.60;93.50;28.50;99983.00;;;;340839;28;82463;-91
2023/07/10 00:44:57;;;;;;;;;;;28.60;93.50;28.50;99982.00;;;;336353;28;92176;-90
2023/07/10 00:45:10;;;;;;;;;;;28.60;93.50;28.40;99987.00;;;;335513;29;82588;-90
2023/07/10 00:45:33;;;;;;;;;;;28.60;93.60;28.50;99986.00;;;;336415;28;90355;-90
2023/07/10 00:45:46;;;;;;;;;;;28.60;93.50;28.40;99991.00;;;;335436;29;83460;-91
2023/07/10 00:46:15;;;;;;;;;;;28.60;93.60;28.40;99985.00;;;;337547;28;92122;-90
2023/07/10 00:46:31;;;;;;;;;;;28.60;93.60;28.40;99984.00;;;;336952;28;82331;-91
2023/07/10 00:46:54;;;;;;;;;;;28.50;93.60;28.40;99980.00;;;;335128;29;91797;-90
2023/07/10 00:47:11;;;;;;;;;;;28.60;93.70;28.40;99984.00;;;;338202;28;82501;-90
2023/07/10 00:47:34;;;;;;;;;;;28.60;93.70;28.40;99982.00;;;;336398;28;91930;-90
2023/07/10 00:47:53;;;;;;;;;;;28.50;93.70;28.40;99984.00;;;;338060;28;83254;-91
2023/07/10 00:48:30;;;;;;;;;;;28.60;93.70;28.50;99984.00;;;;339006;28;90295;-90
2023/07/10 00:48:53;;;;;;;;;;;28.50;93.60;28.50;99981.00;;;;336904;28;83319;-91
2023/07/10 00:49:25;;;;;;;;;;;28.50;93.60;28.50;99984.00;;;;333796;29;90349;-90
2023/07/10 00:50:00;;;;;;;;;;;28.50;93.60;28.50;99994.00;;;;336651;28;83475;-91
2023/07/10 00:50:21;;;;;;;;;;;28.50;93.70;28.40;99990.00;;;;336231;28;92164;-90
2023/07/10 00:50:45;;;;;;;;;;;28.60;93.70;28.40;99985.00;;;;334070;28;83492;-90
2023/07/10 00:50:58;;;;;;;;;;;28.50;93.70;28.40;99983.00;;;;336369;28;88250;-90
2023/07/10 00:51:32;;;;;;;;;;;28.50;93.70;28.30;99989.00;;;;336819;28;83354;-90
2023/07/10 00:52:00;;;;;;;;;;;28.50;93.70;28.30;99991.00;;;;336299;28;91213;-90
2023/07/10 00:52:18;;;;;;;;;;;28.50;93.60;28.30;99995.00;;;;338037;28;83511;-91
2023/07/10 00:52:39;;;;;;;;;;;28.50;93.80;28.30;99993.00;;;;337705;28;91160;-92
2023/07/10 00:52:51;;;;;;;;;;;28.50;93.80;28.30;99991.00;;;;336722;28;83460;-90
2023/07/10 00:53:05;;;;;;;;;;;28.50;93.80;28.30;99986.00;;;;337703;28;91277;-92
2023/07/10 00:53:25;;;;;;;;;;;28.50;93.80;28.40;99987.00;;;;338076;28;83409;-90
2023/07/10 00:53:38;;;;;;;;;;;28.50;93.80;28.30;99988.00;;;;337560;28;89603;-90
2023/07/10 00:53:50;;;;;;;;;;;28.50;93.80;28.30;99987.00;;;;336779;28;83481;-90
2023/07/10 00:54:02;;;;;;;;;;;28.50;93.80;28.30;99992.00;;;;335020;29;91301;-90
2023/07/10 00:54:37;;;;;;;;;;;28.50;93.70;28.30;99988.00;;;;337947;28;83478;-91
2023/07/10 00:54:52;;;;;;;;;;;28.50;93.80;28.20;99988.00;;;;336535;28;90348;-91
2023/07/10 00:55:31;;;;;;;;;;;28.50;93.80;28.30;99989.00;;;;336791;28;83463;-91
2023/07/10 00:55:43;;;;;;;;;;;28.50;93.80;28.30;99994.00;;;;337515;28;91534;-91
2023/07/10 00:55:55;;;;;;;;;;;28.50;93.80;28.30;99989.00;;;;339472;28;83359;-91
2023/07/10 00:56:13;;;;;;;;;;;28.50;93.70;28.30;99990.00;;;;337662;28;92176;-90
2023/07/10 00:56:26;;;;;;;;;;;28.50;93.70;28.30;99995.00;;;;339489;28;83275;-91
2023/07/10 00:56:39;;;;;;;;;;;28.50;93.80;28.20;99992.00;;;;338849;28;91701;-90
2023/07/10 00:56:53;;;;;;;;;;;28.50;93.80;28.30;99998.00;;;;336803;28;83351;-91
2023/07/10 00:57:12;;;;;;;;;;;28.50;93.80;28.20;99986.00;;;;339023;28;90374;-90
2023/07/10 00:57:33;;;;;;;;;;;28.50;93.80;28.20;99993.00;;;;336829;28;83410;-91
2023/07/10 00:57:47;;;;;;;;;;;28.40;93.80;28.20;99997.00;;;;336364;28;92271;-90
2023/07/10 00:58:24;;;;;;;;;;;28.50;93.80;28.20;99996.00;;;;339502;28;82484;-90
2023/07/10 00:58:45;;;;;;;;;;;28.40;93.80;28.20;99999.00;;;;337635;28;91419;-91
2023/07/10 00:58:57;;;;;;;;;;;28.40;93.80;28.20;99995.00;;;;338096;28;82524;-90
2023/07/10 00:59:25;;;;;;;;;;;28.50;93.80;28.20;99996.00;;;;336417;28;90259;-92
2023/07/10 00:59:38;;;;;;;;;;;28.40;93.80;28.20;99987.00;;;;336550;28;83499;-90
2023/07/10 00:59:50;;;;;;;;;;;28.40;93.80;28.20;99992.00;;;;336203;28;90157;-90
2023/07/10 01:00:16;;;;;;;;;;;28.40;93.80;28.20;99987.00;;;;338037;28;83485;-90
2023/07/10 01:00:28;;;;;;;;;;;28.50;93.90;28.20;99989.00;;;;335054;29;91741;-90
2023/07/10 01:01:05;;;;;;;;;;;28.40;93.80;28.20;100000.00;;;;336523;28;83506;-90
2023/07/10 01:01:22;;;;;;;;;;;28.50;93.80;28.20;99997.00;;;;337718;28;90620;-91
2023/07/10 01:01:34;;;;;;;;;;;28.50;93.80;28.10;99992.00;;;;338050;28;83518;-90
2023/07/10 01:02:22;;;;;;;;;;;28.40;93.80;28.20;99996.00;;;;339034;28;89107;-91
2023/07/10 01:02:34;;;;;;;;;;;28.40;93.80;28.10;99994.00;;;;335400;29;84060;-89
2023/07/10 01:02:46;;;;;;;;;;;28.40;93.90;28.20;99993.00;;;;333657;29;90839;-91
2023/07/10 01:02:58;;;;;;;;;;;28.40;93.90;28.10;99993.00;;;;332746;29;83591;-91
2023/07/10 01:03:12;;;;;;;;;;;28.40;94.00;28.20;99987.00;;;;334926;29;92914;-90
2023/07/10 01:03:24;;;;;;;;;;;28.40;93.90;28.10;99996.00;;;;335127;29;83633;-89
2023/07/10 01:03:39;;;;;;;;;;;28.40;93.90;28.10;99993.00;;;;332143;29;90804;-90
2023/07/10 01:03:52;;;;;;;;;;;28.40;93.90;28.10;99992.00;;;;335397;29;83527;-90
2023/07/10 01:04:03;;;;;;;;;;;28.40;93.90;28.20;99989.00;;;;335026;29;90543;-90
2023/07/10 01:04:18;;;;;;;;;;;28.40;93.90;28.10;99987.00;;;;336639;28;83432;-90
2023/07/10 01:04:30;;;;;;;;;;;28.40;94.00;28.10;99986.00;;;;336325;28;91801;-91
2023/07/10 01:04:44;;;;;;;;;;;28.30;93.90;28.10;99984.00;;;;332873;29;82523;-90
2023/07/10 01:04:59;;;;;;;;;;;28.30;93.90;28.10;99981.00;;;;332452;29;88728;-91
2023/07/10 01:05:12;;;;;;;;;;;28.30;94.00;28.10;99986.00;;;;335434;29;83305;-90
2023/07/10 01:05:25;;;;;;;;;;;28.30;93.90;28.10;99990.00;;;;334903;29;92448;-91
2023/07/10 01:05:37;;;;;;;;;;;28.30;94.00;28.10;99992.00;;;;336695;28;83556;-91
2023/07/10 01:05:48;;;;;;;;;;;28.30;93.90;28.10;99983.00;;;;334767;29;90158;-91
2023/07/10 01:06:05;;;;;;;;;;;28.30;94.00;28.10;99981.00;;;;334186;29;82523;-90
2023/07/10 01:06:30;;;;;;;;;;;28.30;94.00;27.90;99985.00;;;;336231;28;91274;-90
2023/07/10 01:06:42;;;;;;;;;;;28.20;94.10;28.00;99980.00;;;;335383;29;83556;-91
2023/07/10 01:06:54;;;;;;;;;;;28.30;94.10;28.00;99982.00;;;;332385;29;90760;-91
2023/07/10 01:07:14;;;;;;;;;;;28.20;94.00;28.10;99986.00;;;;335427;29;83467;-90
2023/07/10 01:07:27;;;;;;;;;;;28.20;94.00;28.10;99984.00;;;;333557;29;90528;-91
2023/07/10 01:07:46;;;;;;;;;;;28.20;94.10;28.00;99979.00;;;;334040;29;82381;-91
2023/07/10 01:07:58;;;;;;;;;;;28.20;94.20;28.00;99988.00;;;;334958;29;91936;-90
2023/07/10 01:08:12;;;;;;;;;;;28.20;94.10;27.90;99986.00;;;;334219;29;83318;-91
2023/07/10 01:08:24;;;;;;;;;;;28.20;94.20;28.00;99982.00;;;;333573;29;91830;-90
2023/07/10 01:08:36;;;;;;;;;;;28.20;94.10;28.00;99989.00;;;;334166;29;82566;-90
2023/07/10 01:08:50;;;;;;;;;;;28.20;94.10;28.10;99982.00;;;;333788;29;91224;-90
2023/07/10 01:09:04;;;;;;;;;;;28.10;94.10;28.00;99980.00;;;;335362;29;83467;-90
2023/07/10 01:09:16;;;;;;;;;;;28.10;94.20;28.00;99980.00;;;;333762;29;90277;-90
2023/07/10 01:09:28;;;;;;;;;;;28.10;94.20;28.00;99981.00;;;;334182;29;83481;-90
2023/07/10 01:09:49;;;;;;;;;;;28.10;94.20;28.10;99979.00;;;;335050;29;90935;-90
2023/07/10 01:10:05;;;;;;;;;;;28.10;94.20;28.10;99983.00;;;;335458;28;82512;-90
2023/07/10 01:10:17;;;;;;;;;;;28.20;94.20;28.10;99982.00;;;;333531;29;92509;-90
2023/07/10 01:10:29;;;;;;;;;;;28.10;94.30;28.10;99978.00;;;;335560;29;82504;-90
2023/07/10 01:10:41;;;;;;;;;;;28.10;94.30;28.10;99978.00;;;;336323;28;91092;-91
2023/07/10 01:10:52;;;;;;;;;;;28.10;94.30;28.10;99977.00;;;;335331;29;83527;-90
2023/07/10 01:11:04;;;;;;;;;;;28.10;94.30;28.00;99982.00;;;;335002;29;91705;-90
2023/07/10 01:11:16;;;;;;;;;;;28.10;94.30;28.00;99981.00;;;;331548;29;83419;-90
2023/07/10 01:11:28;;;;;;;;;;;28.10;94.30;28.00;99984.00;;;;332476;29;90606;-90
2023/07/10 01:11:40;;;;;;;;;;;28.20;94.30;28.00;99978.00;;;;337947;28;83547;-90
2023/07/10 01:11:52;;;;;;;;;;;28.10;94.20;28.00;99980.00;;;;332452;29;90306;-89
2023/07/10 01:12:05;;;;;;;;;;;28.20;94.30;28.00;99983.00;;;;334225;29;83450;-90
2023/07/10 01:12:18;;;;;;;;;;;28.20;94.30;28.00;99981.00;;;;334971;29;89386;-91
2023/07/10 01:12:30;;;;;;;;;;;28.10;94.30;28.00;99983.00;;;;334232;29;82589;-91
2023/07/10 01:12:42;;;;;;;;;;;28.10;94.20;28.00;99979.00;;;;333862;29;90336;-90
2023/07/10 01:12:54;;;;;;;;;;;28.10;94.30;27.90;99975.00;;;;335497;29;82484;-91